createdAt,value
2023-08-20T00:03:37.517Z,96122.00
2023-08-20T00:09:07.861Z,96119.00
2023-08-20T00:15:08.115Z,96114.00
2023-08-20T00:20:36.875Z,96119.00
2023-08-20T00:26:05.343Z,96114.00
2023-08-20T00:31:33.755Z,96116.00
2023-08-20T00:37:02.666Z,96114.00
2023-08-20T00:42:31.677Z,96125.00
2023-08-20T00:47:59.649Z,96131.00
2023-08-20T00:53:28.852Z,96128.00
2023-08-20T00:58:58.379Z,96130.00
2023-08-20T01:04:27.320Z,96128.00
2023-08-20T01:09:58.839Z,96120.00
2023-08-20T01:15:27.500Z,96121.00
2023-08-20T01:21:05.322Z,96126.00
2023-08-20T01:26:37.605Z,96127.00
2023-08-20T01:32:06.419Z,96123.00
2023-08-20T01:37:34.804Z,96119.00
2023-08-20T01:43:03.117Z,96129.00
2023-08-20T01:48:31.325Z,96143.00
2023-08-20T01:53:59.437Z,96149.00
2023-08-20T01:59:27.953Z,96130.00
2023-08-20T02:04:57.148Z,96138.00
2023-08-20T02:10:25.647Z,96135.00
2023-08-20T02:16:04.526Z,96134.00
2023-08-20T02:21:32.857Z,96130.00
2023-08-20T02:27:01.034Z,96129.00
2023-08-20T02:32:29.249Z,96128.00
2023-08-20T02:38:01.227Z,96126.00
2023-08-20T02:43:29.875Z,96141.00
2023-08-20T02:48:58.016Z,96142.00
2023-08-20T02:54:27.344Z,96133.00
2023-08-20T02:59:55.498Z,96138.00
2023-08-20T03:05:24.277Z,96132.00
2023-08-20T03:10:52.544Z,96136.00
2023-08-20T03:16:20.747Z,96133.00
2023-08-20T03:21:49.130Z,96145.00
2023-08-20T03:27:18.031Z,96146.00
2023-08-20T03:32:52.264Z,96148.00
2023-08-20T03:38:21.935Z,96150.00
2023-08-20T03:43:50.189Z,96147.00
2023-08-20T03:49:18.493Z,96159.00
2023-08-20T03:54:46.955Z,96161.00
2023-08-20T04:00:15.503Z,96159.00
2023-08-20T04:05:43.640Z,96158.00
2023-08-20T04:11:11.790Z,96171.00
2023-08-20T04:16:41.564Z,96170.00
2023-08-20T04:22:10.488Z,96178.00
2023-08-20T04:27:38.958Z,96182.00
2023-08-20T04:33:07.883Z,96194.00
2023-08-20T04:38:36.807Z,96195.00
2023-08-20T04:44:05.201Z,96198.00
2023-08-20T04:49:33.422Z,96191.00
2023-08-20T04:55:05.680Z,96197.00
2023-08-20T05:00:34.000Z,96196.00
2023-08-20T05:06:12.149Z,96191.00
2023-08-20T05:11:40.522Z,96197.00
2023-08-20T05:17:08.646Z,96192.00
2023-08-20T05:22:37.082Z,96204.00
2023-08-20T05:28:05.920Z,96210.00
2023-08-20T05:33:35.426Z,96202.00
2023-08-20T05:39:05.008Z,96192.00
2023-08-20T05:44:34.382Z,96193.00
2023-08-20T05:50:04.826Z,96189.00
2023-08-20T05:55:34.314Z,96194.00
2023-08-20T06:01:02.204Z,96189.00
2023-08-20T06:06:31.268Z,96191.00
2023-08-20T06:11:59.736Z,96185.00
2023-08-20T06:17:27.859Z,96195.00
2023-08-20T06:22:56.299Z,96193.00
2023-08-20T06:28:24.419Z,96213.00
2023-08-20T06:33:52.733Z,96204.00
2023-08-20T06:39:21.133Z,96210.00
2023-08-20T06:44:49.518Z,96210.00
2023-08-20T06:50:17.837Z,96208.00
2023-08-20T06:55:45.967Z,96214.00
2023-08-20T07:01:14.955Z,96216.00
2023-08-20T07:06:43.407Z,96220.00
2023-08-20T07:12:11.840Z,96230.00
2023-08-20T07:17:40.184Z,96240.00
2023-08-20T07:23:08.382Z,96234.00
2023-08-20T07:28:55.482Z,96227.00
2023-08-20T07:34:23.280Z,96238.00
2023-08-20T07:39:51.569Z,96246.00
2023-08-20T07:45:19.443Z,96244.00
2023-08-20T07:50:47.290Z,96244.00
2023-08-20T07:56:15.614Z,96248.00
2023-08-20T08:01:44.036Z,96253.00
2023-08-20T08:07:12.675Z,96256.00
2023-08-20T08:12:40.901Z,96257.00
2023-08-20T08:18:09.516Z,96260.00
2023-08-20T08:23:37.421Z,96266.00
2023-08-20T08:29:07.288Z,96263.00
2023-08-20T08:34:35.455Z,96265.00
2023-08-20T08:40:06.718Z,96266.00
2023-08-20T08:45:35.778Z,96262.00
2023-08-20T08:51:04.459Z,96262.00
2023-08-20T08:56:32.873Z,96262.00
2023-08-20T09:02:02.050Z,96255.00
2023-08-20T09:07:31.907Z,96248.00
2023-08-20T09:13:02.276Z,96248.00
2023-08-20T09:18:31.547Z,96253.00
2023-08-20T09:23:59.986Z,96257.00
2023-08-20T09:29:28.144Z,96263.00
2023-08-20T09:34:57.231Z,96257.00
2023-08-20T09:40:25.949Z,96260.00
2023-08-20T09:45:56.071Z,96267.00
2023-08-20T09:51:29.904Z,96272.00
2023-08-20T09:57:02.342Z,96275.00
2023-08-20T10:02:30.948Z,96274.00
2023-08-20T10:08:00.343Z,96274.00
2023-08-20T10:13:29.352Z,96274.00
2023-08-20T10:19:00.562Z,96269.00
2023-08-20T10:24:53.184Z,96276.00
2023-08-20T10:30:27.255Z,96275.00
2023-08-20T10:35:55.834Z,96273.00
2023-08-20T10:41:30.755Z,96280.00
2023-08-20T10:47:00.175Z,96277.00
2023-08-20T10:52:33.703Z,96275.00
2023-08-20T10:58:06.331Z,96274.00
2023-08-20T11:03:38.286Z,96271.00
2023-08-20T11:09:06.960Z,96271.00
2023-08-20T11:14:36.327Z,96273.00
2023-08-20T11:20:08.926Z,96266.00
2023-08-20T11:25:43.775Z,96265.00
2023-08-20T11:31:14.504Z,96258.00
2023-08-20T11:36:47.407Z,96258.00
2023-08-20T11:42:16.123Z,96258.00
2023-08-20T11:47:44.918Z,96256.00
2023-08-20T11:53:22.268Z,96248.00
2023-08-20T11:58:53.696Z,96244.00
2023-08-20T12:04:30.152Z,96241.00
2023-08-20T12:09:58.339Z,96248.00
2023-08-20T12:15:27.622Z,96246.00
2023-08-20T12:20:56.470Z,96242.00
2023-08-20T12:26:24.760Z,96243.00
2023-08-20T12:31:53.299Z,96236.00
2023-08-20T12:37:21.197Z,96237.00
2023-08-20T12:42:49.519Z,96232.00
2023-08-20T12:48:17.949Z,96231.00
2023-08-20T12:53:46.348Z,96223.00
2023-08-20T12:59:14.265Z,96218.00
2023-08-20T13:04:44.704Z,96218.00
2023-08-20T13:10:14.000Z,96220.00
2023-08-20T13:15:43.278Z,96211.00
2023-08-20T13:21:11.628Z,96205.00
2023-08-20T13:26:40.458Z,96200.00
2023-08-20T13:32:08.679Z,96195.00
2023-08-20T13:37:36.574Z,96185.00
2023-08-20T13:43:05.068Z,96188.00
2023-08-20T13:48:33.373Z,96182.00
2023-08-20T13:54:01.323Z,96176.00
2023-08-20T13:59:29.547Z,96179.00
2023-08-20T14:04:57.402Z,96174.00
2023-08-20T14:10:25.399Z,96170.00
2023-08-20T14:15:53.745Z,96167.00
2023-08-20T14:21:29.272Z,96163.00
2023-08-20T14:26:57.621Z,96162.00
2023-08-20T14:32:25.868Z,96164.00
2023-08-20T14:37:57.829Z,96150.00
2023-08-20T14:43:29.207Z,96117.00
2023-08-20T14:48:59.532Z,96109.00
2023-08-20T14:54:27.874Z,96112.00
2023-08-20T14:59:57.102Z,96137.00
2023-08-20T15:05:25.516Z,96156.00
2023-08-20T15:11:06.053Z,96163.00
2023-08-20T15:16:34.416Z,96157.00
2023-08-20T15:22:04.498Z,96162.00
2023-08-20T15:27:32.805Z,96150.00
2023-08-20T15:33:01.203Z,96154.00
2023-08-20T15:38:29.376Z,96159.00
2023-08-20T15:43:57.551Z,96159.00
2023-08-20T15:49:28.580Z,96158.00
2023-08-20T15:54:56.905Z,96147.00
2023-08-20T16:00:26.160Z,96155.00
2023-08-20T16:05:54.542Z,96152.00
2023-08-20T16:11:23.038Z,96154.00
2023-08-20T16:16:51.451Z,96151.00
2023-08-20T16:22:19.724Z,96154.00
2023-08-20T16:27:51.479Z,96166.00
2023-08-20T16:33:22.475Z,96163.00
2023-08-20T16:38:50.943Z,96148.00
2023-08-20T16:44:21.538Z,96155.00
2023-08-20T16:49:49.911Z,96155.00
2023-08-20T16:55:17.781Z,96151.00
2023-08-20T17:00:46.346Z,96158.00
2023-08-20T17:06:14.668Z,96151.00
2023-08-20T17:11:42.439Z,96160.00
2023-08-20T17:17:11.064Z,96171.00
2023-08-20T17:22:39.564Z,96171.00
2023-08-20T17:28:08.040Z,96175.00
2023-08-20T17:33:36.458Z,96171.00
2023-08-20T17:39:05.085Z,96178.00
2023-08-20T17:44:33.435Z,96177.00
2023-08-20T17:50:01.734Z,96180.00
2023-08-20T17:55:34.010Z,96178.00
2023-08-20T18:01:02.620Z,96185.00
2023-08-20T18:06:30.723Z,96186.00
2023-08-20T18:12:01.318Z,96194.00
2023-08-20T18:17:36.376Z,96195.00
2023-08-20T18:23:05.930Z,96200.00
2023-08-20T18:28:34.624Z,96204.00
2023-08-20T18:34:04.440Z,96200.00
2023-08-20T18:39:33.380Z,96209.00
2023-08-20T18:45:05.232Z,96217.00
2023-08-20T18:50:34.134Z,96221.00
2023-08-20T18:56:05.632Z,96231.00
2023-08-20T19:01:35.631Z,96241.00
2023-08-20T19:07:05.272Z,96239.00
2023-08-20T19:12:33.970Z,96248.00
2023-08-20T19:18:02.320Z,96249.00
2023-08-20T19:23:30.493Z,96251.00
2023-08-20T19:28:58.697Z,96254.00
2023-08-20T19:34:26.970Z,96254.00
2023-08-20T19:39:55.302Z,96255.00
2023-08-20T19:45:23.542Z,96263.00
2023-08-20T19:50:51.889Z,96276.00
2023-08-20T19:56:22.789Z,96270.00
2023-08-20T20:01:52.881Z,96274.00
2023-08-20T20:07:22.946Z,96271.00
2023-08-20T20:12:51.210Z,96273.00
2023-08-20T20:18:19.698Z,96279.00
2023-08-20T20:23:47.828Z,96277.00
2023-08-20T20:29:16.119Z,96275.00
2023-08-20T20:34:44.028Z,96272.00
2023-08-20T20:40:12.481Z,96285.00
2023-08-20T20:45:47.116Z,96281.00
2023-08-20T20:51:16.290Z,96280.00
2023-08-20T20:56:44.514Z,96285.00
2023-08-20T21:02:12.727Z,96291.00
2023-08-20T21:07:41.267Z,96287.00
2023-08-20T21:13:12.092Z,96281.00
2023-08-20T21:18:40.627Z,96281.00
2023-08-20T21:24:09.370Z,96282.00
2023-08-20T21:29:39.463Z,96281.00
2023-08-20T21:35:08.532Z,96286.00
2023-08-20T21:40:37.082Z,96284.00
2023-08-20T21:46:06.450Z,96283.00
2023-08-20T21:51:35.721Z,96290.00
2023-08-20T21:57:12.524Z,96284.00
2023-08-20T22:02:44.560Z,96288.00
2023-08-20T22:08:14.456Z,96283.00
2023-08-20T22:13:42.933Z,96283.00
2023-08-20T22:19:11.326Z,96277.00
2023-08-20T22:24:39.827Z,96283.00
2023-08-20T22:30:08.358Z,96285.00
2023-08-20T22:35:36.657Z,96280.00
2023-08-20T22:41:04.816Z,96271.00
2023-08-20T22:46:32.958Z,96282.00
2023-08-20T22:52:01.142Z,96295.00
2023-08-20T22:57:29.394Z,96281.00
2023-08-20T23:02:57.342Z,96283.00
2023-08-20T23:08:25.617Z,96296.00
2023-08-20T23:13:53.740Z,96287.00
2023-08-20T23:19:21.882Z,96282.00
2023-08-20T23:24:50.315Z,96274.00
2023-08-20T23:30:19.344Z,96275.00
2023-08-20T23:35:47.576Z,96273.00
2023-08-20T23:41:17.770Z,96273.00
2023-08-20T23:46:48.556Z,96274.00
2023-08-20T23:52:17.088Z,96270.00
2023-08-20T23:57:45.286Z,96263.00
